createdAt,value
2022-09-12T00:00:04.315Z,8.1
2022-09-12T00:10:04.269Z,8.1
2022-09-12T00:15:04.575Z,8.1
2022-09-12T00:20:04.453Z,8
2022-09-12T00:25:04.463Z,8
2022-09-12T00:30:04.824Z,8
2022-09-12T00:45:05.098Z,7.9
2022-09-12T00:50:04.935Z,7.9
2022-09-12T01:05:05.220Z,7.8
2022-09-12T01:10:05.222Z,7.8
2022-09-12T01:15:05.595Z,7.8
2022-09-12T01:20:05.442Z,7.8
2022-09-12T01:25:05.472Z,7.8
2022-09-12T01:30:06.018Z,7.8
2022-09-12T01:35:05.693Z,7.8
2022-09-12T01:40:06.702Z,7.8
2022-09-12T01:45:05.946Z,7.8
2022-09-12T01:50:05.892Z,7.7
2022-09-12T01:55:09.537Z,7.7
2022-09-12T02:00:06.398Z,7.7
2022-09-12T02:05:06.152Z,7.7
2022-09-12T02:10:06.230Z,7.7
2022-09-12T02:15:06.311Z,7.7
2022-09-12T02:20:06.399Z,7.7
2022-09-12T02:25:06.484Z,7.7
2022-09-12T02:35:06.922Z,7.6
2022-09-12T02:40:07.327Z,7.6
2022-09-12T02:45:07.084Z,7.6
2022-09-12T02:50:06.950Z,7.6
2022-09-12T02:55:06.986Z,7.5
2022-09-12T03:00:07.368Z,7.5
2022-09-12T03:05:07.461Z,7.5
2022-09-12T03:10:07.310Z,7.5
2022-09-12T03:15:07.328Z,7.5
2022-09-12T03:20:07.813Z,7.5
2022-09-12T03:25:07.548Z,7.4
2022-09-12T03:30:07.574Z,7.4
2022-09-12T03:35:08.028Z,7.4
2022-09-12T03:40:08.073Z,7.4
2022-09-12T03:45:07.827Z,7.3
2022-09-12T03:50:08.222Z,7.4
2022-09-12T03:55:08.053Z,7.4
2022-09-12T04:00:08.429Z,7.4
2022-09-12T04:05:08.169Z,7.4
2022-09-12T04:10:09.590Z,7.4
2022-09-12T04:15:08.338Z,7.4
2022-09-12T04:20:08.712Z,7.3
2022-09-12T04:25:08.569Z,7.3
2022-09-12T04:30:08.884Z,7.3
2022-09-12T04:45:08.911Z,7.2
2022-09-12T04:55:09.307Z,7.2
2022-09-12T05:00:09.090Z,7.2
2022-09-12T05:05:09.182Z,7.3
2022-09-12T05:10:09.759Z,7.2
2022-09-12T05:15:09.344Z,7.2
2022-09-12T05:20:09.433Z,7.2
2022-09-12T05:25:09.841Z,7.2
2022-09-12T05:30:09.661Z,7.2
2022-09-12T05:35:09.825Z,7.2
2022-09-12T05:40:09.999Z,7.2
2022-09-12T05:45:09.849Z,7.2
2022-09-12T05:50:10.233Z,7.3
2022-09-12T06:00:10.401Z,7.4
2022-09-12T06:05:10.560Z,7.5
2022-09-12T06:10:10.344Z,7.6
2022-09-12T06:15:10.357Z,7.6
2022-09-12T06:20:10.809Z,7.7
2022-09-12T06:25:10.585Z,7.8
2022-09-12T06:35:10.982Z,8.1
2022-09-12T06:40:10.879Z,8.3
2022-09-12T06:50:11.245Z,8.6
2022-09-12T06:55:11.358Z,8.7
2022-09-12T07:00:11.175Z,8.9
2022-09-12T07:05:11.204Z,9.1
2022-09-12T07:10:11.595Z,9.6
2022-09-12T07:15:11.443Z,10.1
2022-09-12T07:20:11.455Z,10.3
2022-09-12T07:25:11.832Z,10.8
2022-09-12T07:30:11.695Z,11.2
2022-09-12T07:35:11.706Z,11.6
2022-09-12T07:40:12.138Z,11.6
2022-09-12T07:50:12.122Z,10.5
2022-09-12T07:55:12.042Z,10.4
2022-09-12T08:00:12.124Z,10.1
2022-09-12T08:05:12.422Z,10.2
2022-09-12T08:10:12.296Z,10.2
2022-09-12T08:15:12.375Z,10.2
2022-09-12T08:20:12.461Z,10.3
2022-09-12T08:25:12.546Z,10.2
2022-09-12T08:30:12.631Z,10.3
2022-09-12T08:35:12.724Z,10.5
2022-09-12T08:40:12.829Z,10.6
2022-09-12T08:45:12.882Z,10.8
2022-09-12T08:50:12.971Z,10.5
2022-09-12T09:00:13.134Z,10.7
2022-09-12T09:05:13.218Z,10.4
2022-09-12T09:10:13.304Z,10.6
2022-09-12T09:15:13.392Z,10.6
2022-09-12T09:20:13.477Z,10.6
2022-09-12T09:25:13.862Z,10.5
2022-09-12T09:30:13.712Z,10.4
2022-09-12T09:40:14.241Z,10.7
2022-09-12T09:45:13.946Z,10.7
2022-09-12T09:50:14.078Z,10.9
2022-09-12T09:55:14.366Z,10.8
2022-09-12T10:00:14.203Z,11
2022-09-12T10:05:14.307Z,11
2022-09-12T10:10:14.833Z,11.1
2022-09-12T10:15:14.462Z,10.9
2022-09-12T10:20:21.374Z,11.2
2022-09-12T10:25:14.874Z,11
2022-09-12T10:30:14.961Z,10.9
2022-09-12T10:35:15.040Z,11.3
2022-09-12T10:40:14.972Z,11.4
2022-09-12T10:45:14.910Z,11.2
2022-09-12T10:50:22.511Z,11.2
2022-09-12T11:00:15.166Z,11.4
2022-09-12T11:05:17.440Z,11.1
2022-09-12T11:10:15.327Z,11.6
2022-09-12T11:15:15.411Z,11.2
2022-09-12T11:20:15.841Z,11.4
2022-09-12T11:25:15.642Z,11.5
2022-09-12T11:30:15.668Z,11.4
2022-09-12T11:35:17.519Z,11.4
2022-09-12T11:40:16.056Z,11.4
2022-09-12T11:45:16.086Z,11.4
2022-09-12T11:50:16.317Z,11.4
2022-09-12T11:55:16.134Z,11.3
2022-09-12T12:00:16.170Z,11.4
2022-09-12T12:05:16.391Z,11.2
2022-09-12T12:10:16.753Z,11.2
2022-09-12T12:15:16.470Z,11.6
2022-09-12T12:20:16.503Z,11.6
2022-09-12T12:25:20.899Z,11.2
2022-09-12T12:30:17.704Z,11.1
2022-09-12T12:35:16.761Z,11.1
2022-09-12T12:40:17.193Z,11.4
2022-09-12T12:45:16.983Z,11.6
2022-09-12T12:50:17.013Z,11.5
2022-09-12T12:55:17.364Z,11.5
2022-09-12T13:00:17.237Z,11.8
2022-09-12T13:05:17.266Z,11.8
2022-09-12T13:10:17.645Z,11.6
2022-09-12T13:15:17.485Z,11.4
2022-09-12T13:20:27.682Z,11.3
2022-09-12T13:25:17.914Z,11.1
2022-09-12T13:30:17.739Z,11.5
2022-09-12T13:40:18.357Z,11.3
2022-09-12T13:45:18.218Z,10.8
2022-09-12T13:50:18.079Z,10.6
2022-09-12T13:55:18.112Z,10.8
2022-09-12T14:00:18.190Z,10.9
2022-09-12T14:05:18.348Z,10.8
2022-09-12T14:10:19.385Z,11
2022-09-12T14:15:18.439Z,10.9
2022-09-12T14:20:18.803Z,10.9
2022-09-12T14:30:18.701Z,10.9
2022-09-12T14:35:18.779Z,11
2022-09-12T14:40:18.950Z,11.1
2022-09-12T14:45:19.205Z,11.4
2022-09-12T14:50:19.042Z,11.1
2022-09-12T14:55:19.118Z,11
2022-09-12T15:00:19.532Z,11.2
2022-09-12T15:05:19.361Z,11.2
2022-09-12T15:10:19.436Z,11.3
2022-09-12T15:15:19.459Z,11
2022-09-12T15:20:19.832Z,10.8
2022-09-12T15:25:19.706Z,10.9
2022-09-12T15:30:19.774Z,10.7
2022-09-12T15:35:19.791Z,10.9
2022-09-12T15:40:20.275Z,11.1
2022-09-12T15:45:20.014Z,11.1
2022-09-12T15:50:20.042Z,10.9
2022-09-12T15:55:20.406Z,10.7
2022-09-12T16:00:20.279Z,10.9
2022-09-12T16:05:20.359Z,12.3
2022-09-12T16:10:20.645Z,12.4
2022-09-12T16:15:20.711Z,12.2
2022-09-12T16:20:20.551Z,11.9
2022-09-12T16:30:20.787Z,11.9
2022-09-12T16:35:20.808Z,12
2022-09-12T16:45:21.025Z,12
2022-09-12T16:50:21.058Z,12
2022-09-12T16:55:21.428Z,11.8
2022-09-12T17:00:21.306Z,11.9
2022-09-12T17:05:21.375Z,11.8
2022-09-12T17:10:21.391Z,11.8
2022-09-12T17:15:21.770Z,11.7
2022-09-12T17:20:21.641Z,11.5
2022-09-12T17:25:21.643Z,11.5
2022-09-12T17:30:21.732Z,11.4
2022-09-12T17:35:21.809Z,11.5
2022-09-12T17:40:32.734Z,11.3
2022-09-12T17:45:22.287Z,11.3
2022-09-12T17:50:30.640Z,11.1
2022-09-12T17:55:22.470Z,11.2
2022-09-12T18:00:22.284Z,11.1
2022-09-12T18:05:22.317Z,11
2022-09-12T18:10:22.701Z,11
2022-09-12T18:15:22.686Z,11
2022-09-12T18:20:22.570Z,11
2022-09-12T18:25:22.654Z,10.9
2022-09-12T18:30:22.918Z,11
2022-09-12T18:35:23.079Z,10.8
2022-09-12T18:40:22.980Z,10.8
2022-09-12T18:45:23.263Z,10.8
2022-09-12T18:50:23.404Z,10.7
2022-09-12T18:55:23.218Z,10.8
2022-09-12T19:00:23.247Z,10.7
2022-09-12T19:05:23.602Z,10.8
2022-09-12T19:10:23.468Z,10.6
2022-09-12T19:20:23.845Z,10.6
2022-09-12T19:25:23.773Z,10.6
2022-09-12T19:30:23.804Z,10.6
2022-09-12T19:40:24.238Z,10.6
2022-09-12T19:45:24.073Z,10.5
2022-09-12T19:50:24.143Z,10.5
2022-09-12T19:55:24.172Z,10.4
2022-09-12T20:05:24.388Z,10.4
2022-09-12T20:10:24.427Z,10.3
2022-09-12T20:15:25.166Z,10.3
2022-09-12T20:20:24.636Z,10.2
2022-09-12T20:25:24.678Z,10.2
2022-09-12T20:30:24.761Z,10.3
2022-09-12T20:35:24.846Z,10.3
2022-09-12T20:40:24.973Z,10.2
2022-09-12T20:45:25.015Z,10.2
2022-09-12T20:50:25.097Z,10.1
2022-09-12T20:55:26.438Z,10.1
2022-09-12T21:00:25.320Z,10
2022-09-12T21:05:25.346Z,10
2022-09-12T21:10:25.613Z,10.1
2022-09-12T21:15:25.850Z,10.1
2022-09-12T21:20:25.699Z,10
2022-09-12T21:25:25.689Z,10
2022-09-12T21:30:26.079Z,10
2022-09-12T21:35:25.910Z,9.9
2022-09-12T21:40:25.942Z,9.9
2022-09-12T21:45:26.019Z,9.9
2022-09-12T21:50:26.112Z,9.8
2022-09-12T21:55:26.524Z,9.8
2022-09-12T22:05:26.605Z,9.8
2022-09-12T22:10:26.537Z,9.7
2022-09-12T22:20:26.901Z,9.7
2022-09-12T22:30:26.873Z,9.6
2022-09-12T22:35:26.868Z,9.7
2022-09-12T22:40:27.235Z,9.6
2022-09-12T22:45:27.086Z,9.6
2022-09-12T22:50:27.119Z,9.6
2022-09-12T22:55:27.202Z,9.5
2022-09-12T23:00:27.289Z,9.5
2022-09-12T23:05:27.674Z,9.4
2022-09-12T23:10:27.517Z,9.4
2022-09-12T23:15:27.842Z,9.4
2022-09-12T23:20:27.693Z,9.4
2022-09-12T23:25:27.717Z,9.4
2022-09-12T23:30:28.092Z,9.4
2022-09-12T23:35:27.961Z,9.3
2022-09-12T23:40:28.239Z,9.3
2022-09-12T23:45:28.110Z,9.3
2022-09-12T23:50:28.145Z,9.2
